PWSweather.com
Personal Weather Stations
Station Observations
KTXRICHA120
Richardson, TX

Richardson, TX

Lat: 32.99476242, Lon: -96.73544312

Elevation: 679

Station Type:

High Low Average
Temperature 89.1°F31.7°C 68.9°F20.5°C 82.3°F27.9°C
Dew Point 75.0°F23.9°C 66.2°F19.0°C 71.8°F22.1°C
Winds 9.2 mph 14.8 kmh Calm Calm 3.0 mph SW4.8 kmh SW
Wind Gusts 14.8 mph23.8 kmh -- 4.0 mph6.4 kmh
Humidity 96% 55% 72%
Pressure 29.17 in987.8 mb 29.01 in982.4 mb -
Precipitation 0.00 in0.0 mm - -
Hour Temp Dew Point Humidity Winds Wind Gusts Pressure Precip Precip Rate Daily Precip Total
06:14 AM 69.3°F20.7°C 66.2°F19.0°C 90% 2.9 mph SW4.7 kmh SW 4.5 mph7.2 kmh 29.02 in982.7 mb 0.00 in0.0 mm 0.00 in0.0 mm 0.00 in0.0 mm
06:19 AM 69.3°F20.7°C 66.2°F19.0°C 90% 3.8 mph SW6.1 kmh SW 4.5 mph7.2 kmh 29.01 in982.4 mb 0.00 in0.0 mm 0.00 in0.0 mm 0.00 in0.0 mm
06:24 AM 69.3°F20.7°C 66.6°F19.2°C 91% 2.9 mph SW4.7 kmh SW 3.4 mph5.5 kmh 29.02 in982.7 mb 0.00 in0.0 mm 0.00 in0.0 mm 0.00 in0.0 mm
06:29 AM 69.1°F20.6°C 66.4°F19.1°C 91% 1.3 mph SW2.1 kmh SW 2.2 mph3.5 kmh 29.02 in982.7 mb 0.00 in0.0 mm 0.00 in0.0 mm 0.00 in0.0 mm
06:34 AM 69.1°F20.6°C 66.7°F19.3°C 92% 2.0 mph SW3.2 kmh SW 3.4 mph5.5 kmh 29.02 in982.7 mb 0.00 in0.0 mm 0.00 in0.0 mm 0.00 in0.0 mm
06:39 AM 69.1°F20.6°C 66.7°F19.3°C 92% 1.3 mph SW2.1 kmh SW 2.2 mph3.5 kmh 29.03 in983.1 mb 0.00 in0.0 mm 0.00 in0.0 mm 0.00 in0.0 mm
06:44 AM 68.9°F20.5°C 66.7°F19.3°C 93% 3.1 mph SW5.0 kmh SW 4.5 mph7.2 kmh 29.03 in983.1 mb 0.00 in0.0 mm 0.00 in0.0 mm 0.00 in0.0 mm
06:49 AM 69.1°F20.6°C 66.9°F19.4°C 93% 1.3 mph SW2.1 kmh SW 2.2 mph3.5 kmh 29.03 in983.1 mb 0.00 in0.0 mm 0.00 in0.0 mm 0.00 in0.0 mm
06:54 AM 69.1°F20.6°C 66.9°F19.4°C 93% 1.1 mph SW1.8 kmh SW 2.2 mph3.5 kmh 29.03 in983.1 mb 0.00 in0.0 mm 0.00 in0.0 mm 0.00 in0.0 mm
06:59 AM 69.3°F20.7°C 67.1°F19.5°C 93% 2.0 mph SW3.2 kmh SW 2.2 mph3.5 kmh 29.04 in983.4 mb 0.00 in0.0 mm 0.00 in0.0 mm 0.00 in0.0 mm
07:04 AM 69.3°F20.7°C 67.3°F19.6°C 94% 0.7 mph SSW1.1 kmh SSW 1.1 mph1.8 kmh 29.04 in983.4 mb 0.00 in0.0 mm 0.00 in0.0 mm 0.00 in0.0 mm
07:09 AM 69.4°F20.8°C 67.5°F19.7°C 94% 1.6 mph SW2.6 kmh SW 2.2 mph3.5 kmh 29.04 in983.4 mb 0.00 in0.0 mm 0.00 in0.0 mm 0.00 in0.0 mm
07:14 AM 69.6°F20.9°C 67.6°F19.8°C 94% 1.3 mph SW2.1 kmh SW 2.2 mph3.5 kmh 29.03 in983.1 mb 0.00 in0.0 mm 0.00 in0.0 mm 0.00 in0.0 mm
07:19 AM 69.6°F20.9°C 67.6°F19.8°C 94% 1.1 mph SW1.8 kmh SW 1.1 mph1.8 kmh 29.04 in983.4 mb 0.00 in0.0 mm 0.00 in0.0 mm 0.00 in0.0 mm
07:24 AM 69.8°F21.0°C 68.2°F20.1°C 95% 0.9 mph SW1.4 kmh SW 1.1 mph1.8 kmh 29.04 in983.4 mb 0.00 in0.0 mm 0.00 in0.0 mm 0.00 in0.0 mm
07:29 AM 70.0°F21.1°C 68.4°F20.2°C 95% 1.3 mph SW2.1 kmh SW 2.2 mph3.5 kmh 29.04 in983.4 mb 0.00 in0.0 mm 0.00 in0.0 mm 0.00 in0.0 mm
07:34 AM 70.2°F21.2°C 68.5°F20.3°C 95% 2.5 mph WSW4.0 kmh WSW 3.4 mph5.5 kmh 29.04 in983.4 mb 0.00 in0.0 mm 0.00 in0.0 mm 0.00 in0.0 mm
07:39 AM 70.2°F21.2°C 68.5°F20.3°C 95% 2.2 mph SW3.5 kmh SW 3.4 mph5.5 kmh 29.04 in983.4 mb 0.00 in0.0 mm 0.00 in0.0 mm 0.00 in0.0 mm
07:44 AM 70.3°F21.3°C 68.7°F20.4°C 95% 1.3 mph WSW2.1 kmh WSW 2.2 mph3.5 kmh 29.05 in983.7 mb 0.00 in0.0 mm 0.00 in0.0 mm 0.00 in0.0 mm
07:49 AM 70.5°F21.4°C 68.9°F20.5°C 95% 1.8 mph SW2.9 kmh SW 3.4 mph5.5 kmh 29.05 in983.7 mb 0.00 in0.0 mm 0.00 in0.0 mm 0.00 in0.0 mm
07:54 AM 70.7°F21.5°C 69.1°F20.6°C 95% 0.9 mph W1.4 kmh W 1.1 mph1.8 kmh 29.05 in983.7 mb 0.00 in0.0 mm 0.00 in0.0 mm 0.00 in0.0 mm
07:59 AM 70.7°F21.5°C 69.1°F20.6°C 95% 0.9 mph SW1.4 kmh SW 1.1 mph1.8 kmh 29.05 in983.7 mb 0.00 in0.0 mm 0.00 in0.0 mm 0.00 in0.0 mm
08:04 AM 71.1°F21.7°C 69.4°F20.8°C 95% 1.3 mph SW2.1 kmh SW 2.2 mph3.5 kmh 29.04 in983.4 mb 0.00 in0.0 mm 0.00 in0.0 mm 0.00 in0.0 mm
08:09 AM 71.2°F21.8°C 70.2°F21.2°C 96% 0.7 mph SW1.1 kmh SW 1.1 mph1.8 kmh 29.04 in983.4 mb 0.00 in0.0 mm 0.00 in0.0 mm 0.00 in0.0 mm
08:14 AM 71.2°F21.8°C 69.6°F20.9°C 95% 0.7 mph WSW1.1 kmh WSW 1.1 mph1.8 kmh 29.04 in983.4 mb 0.00 in0.0 mm 0.00 in0.0 mm 0.00 in0.0 mm
08:19 AM 71.4°F21.9°C 69.8°F21.0°C 95% 0.4 mph WSW0.6 kmh WSW 1.1 mph1.8 kmh 29.05 in983.7 mb 0.00 in0.0 mm 0.00 in0.0 mm 0.00 in0.0 mm
08:24 AM 72.0°F22.2°C 70.3°F21.3°C 95% 0.9 mph SW1.4 kmh SW 1.1 mph1.8 kmh 29.05 in983.7 mb 0.00 in0.0 mm 0.00 in0.0 mm 0.00 in0.0 mm
08:29 AM 72.3°F22.4°C 70.7°F21.5°C 95% 1.3 mph SW2.1 kmh SW 2.2 mph3.5 kmh 29.05 in983.7 mb 0.00 in0.0 mm 0.00 in0.0 mm 0.00 in0.0 mm
08:34 AM 72.7°F22.6°C 71.1°F21.7°C 95% 1.6 mph S2.6 kmh S 2.2 mph3.5 kmh 29.05 in983.7 mb 0.00 in0.0 mm 0.00 in0.0 mm 0.00 in0.0 mm
08:39 AM 73.2°F22.9°C 71.2°F21.8°C 94% 2.2 mph SW3.5 kmh SW 2.2 mph3.5 kmh 29.05 in983.7 mb 0.00 in0.0 mm 0.00 in0.0 mm 0.00 in0.0 mm
08:44 AM 73.9°F23.3°C 71.6°F22.0°C 92% 0.7 mph WSW1.1 kmh WSW 1.1 mph1.8 kmh 29.05 in983.7 mb 0.00 in0.0 mm 0.00 in0.0 mm 0.00 in0.0 mm
08:49 AM 74.3°F23.5°C 72.0°F22.2°C 92% 2.5 mph SW4.0 kmh SW 3.4 mph5.5 kmh 29.05 in983.7 mb 0.00 in0.0 mm 0.00 in0.0 mm 0.00 in0.0 mm
08:54 AM 74.7°F23.7°C 72.0°F22.2°C 91% 1.3 mph SW2.1 kmh SW 2.2 mph3.5 kmh 29.05 in983.7 mb 0.00 in0.0 mm 0.00 in0.0 mm 0.00 in0.0 mm
08:59 AM 75.0°F23.9°C 72.0°F22.2°C 90% 2.0 mph WNW3.2 kmh WNW 2.2 mph3.5 kmh 29.05 in983.7 mb 0.00 in0.0 mm 0.00 in0.0 mm 0.00 in0.0 mm
09:04 AM 75.2°F24.0°C 72.1°F22.3°C 90% 4.0 mph SW6.4 kmh SW 5.8 mph9.3 kmh 29.05 in983.7 mb 0.00 in0.0 mm 0.00 in0.0 mm 0.00 in0.0 mm
09:09 AM 75.7°F24.3°C 72.3°F22.4°C 89% 2.2 mph SSW3.5 kmh SSW 3.4 mph5.5 kmh 29.05 in983.7 mb 0.00 in0.0 mm 0.00 in0.0 mm 0.00 in0.0 mm
09:14 AM 75.9°F24.4°C 72.5°F22.5°C 89% 2.5 mph SW4.0 kmh SW 4.5 mph7.2 kmh 29.05 in983.7 mb 0.00 in0.0 mm 0.00 in0.0 mm 0.00 in0.0 mm
09:19 AM 76.5°F24.7°C 72.7°F22.6°C 88% 4.5 mph SW7.2 kmh SW 6.9 mph11.1 kmh 29.06 in984.1 mb 0.00 in0.0 mm 0.00 in0.0 mm 0.00 in0.0 mm
09:24 AM 76.6°F24.8°C 72.9°F22.7°C 88% 0.9 mph S1.4 kmh S 1.1 mph1.8 kmh 29.06 in984.1 mb 0.00 in0.0 mm 0.00 in0.0 mm 0.00 in0.0 mm
09:29 AM 76.8°F24.9°C 73.0°F22.8°C 88% 2.7 mph WSW4.3 kmh WSW 4.5 mph7.2 kmh 29.06 in984.1 mb 0.00 in0.0 mm 0.00 in0.0 mm 0.00 in0.0 mm
09:34 AM 76.6°F24.8°C 72.9°F22.7°C 88% 2.9 mph SW4.7 kmh SW 4.5 mph7.2 kmh 29.06 in984.1 mb 0.00 in0.0 mm 0.00 in0.0 mm 0.00 in0.0 mm
09:39 AM 76.8°F24.9°C 73.0°F22.8°C 88% 2.0 mph SW3.2 kmh SW 2.2 mph3.5 kmh 29.06 in984.1 mb 0.00 in0.0 mm 0.00 in0.0 mm 0.00 in0.0 mm
09:44 AM 77.4°F25.2°C 73.2°F22.9°C 87% 2.5 mph SW4.0 kmh SW 4.5 mph7.2 kmh 29.06 in984.1 mb 0.00 in0.0 mm 0.00 in0.0 mm 0.00 in0.0 mm
09:49 AM 77.7°F25.4°C 73.6°F23.1°C 87% 2.9 mph SSW4.7 kmh SSW 4.5 mph7.2 kmh 29.06 in984.1 mb 0.00 in0.0 mm 0.00 in0.0 mm 0.00 in0.0 mm
09:54 AM 78.3°F25.7°C 73.4°F23.0°C 85% 2.7 mph SW4.3 kmh SW 3.4 mph5.5 kmh 29.06 in984.1 mb 0.00 in0.0 mm 0.00 in0.0 mm 0.00 in0.0 mm
09:59 AM 78.3°F25.7°C 73.8°F23.2°C 86% 2.7 mph W4.3 kmh W 3.4 mph5.5 kmh 29.06 in984.1 mb 0.00 in0.0 mm 0.00 in0.0 mm 0.00 in0.0 mm
10:04 AM 78.6°F25.9°C 73.8°F23.2°C 85% 1.3 mph WSW2.1 kmh WSW 2.2 mph3.5 kmh 29.06 in984.1 mb 0.00 in0.0 mm 0.00 in0.0 mm 0.00 in0.0 mm
10:09 AM 78.8°F26.0°C 73.9°F23.3°C 85% 2.2 mph S3.5 kmh S 4.5 mph7.2 kmh 29.06 in984.1 mb 0.00 in0.0 mm 0.00 in0.0 mm 0.00 in0.0 mm
10:14 AM 79.2°F26.2°C 73.9°F23.3°C 84% 0.9 mph WSW1.4 kmh WSW 1.1 mph1.8 kmh 29.06 in984.1 mb 0.00 in0.0 mm 0.00 in0.0 mm 0.00 in0.0 mm
10:19 AM 79.3°F26.3°C 74.1°F23.4°C 84% 2.7 mph SW4.3 kmh SW 4.5 mph7.2 kmh 29.06 in984.1 mb 0.00 in0.0 mm 0.00 in0.0 mm 0.00 in0.0 mm
10:24 AM 80.6°F27.0°C 74.3°F23.5°C 81% 2.9 mph SW4.7 kmh SW 3.4 mph5.5 kmh 29.06 in984.1 mb 0.00 in0.0 mm 0.00 in0.0 mm 0.00 in0.0 mm
10:29 AM 80.6°F27.0°C 74.3°F23.5°C 81% 4.7 mph SW7.6 kmh SW 5.8 mph9.3 kmh 29.07 in984.4 mb 0.00 in0.0 mm 0.00 in0.0 mm 0.00 in0.0 mm
10:34 AM 80.4°F26.9°C 73.8°F23.2°C 80% 3.6 mph SW5.8 kmh SW 8.1 mph13.0 kmh 29.06 in984.1 mb 0.00 in0.0 mm 0.00 in0.0 mm 0.00 in0.0 mm
10:39 AM 80.6°F27.0°C 74.3°F23.5°C 81% 2.9 mph SW4.7 kmh SW 3.4 mph5.5 kmh 29.07 in984.4 mb 0.00 in0.0 mm 0.00 in0.0 mm 0.00 in0.0 mm
10:44 AM 80.8°F27.1°C 74.1°F23.4°C 80% 2.2 mph WSW3.5 kmh WSW 3.4 mph5.5 kmh 29.07 in984.4 mb 0.00 in0.0 mm 0.00 in0.0 mm 0.00 in0.0 mm
10:49 AM 81.1°F27.3°C 74.5°F23.6°C 80% 2.2 mph SW3.5 kmh SW 3.4 mph5.5 kmh 29.06 in984.1 mb 0.00 in0.0 mm 0.00 in0.0 mm 0.00 in0.0 mm
10:54 AM 81.3°F27.4°C 74.3°F23.5°C 79% 5.8 mph SSW9.3 kmh SSW 9.2 mph14.8 kmh 29.07 in984.4 mb 0.00 in0.0 mm 0.00 in0.0 mm 0.00 in0.0 mm
10:59 AM 81.9°F27.7°C 74.8°F23.8°C 79% 2.2 mph SSW3.5 kmh SSW 4.5 mph7.2 kmh 29.07 in984.4 mb 0.00 in0.0 mm 0.00 in0.0 mm 0.00 in0.0 mm
11:04 AM 82.2°F27.9°C 74.3°F23.5°C 77% 4.5 mph WSW7.2 kmh WSW 5.8 mph9.3 kmh 29.08 in984.8 mb 0.00 in0.0 mm 0.00 in0.0 mm 0.00 in0.0 mm
11:09 AM 82.0°F27.8°C 74.5°F23.6°C 78% 2.2 mph SW3.5 kmh SW 3.4 mph5.5 kmh 29.07 in984.4 mb 0.00 in0.0 mm 0.00 in0.0 mm 0.00 in0.0 mm
11:14 AM 82.2°F27.9°C 74.3°F23.5°C 77% 5.4 mph S8.7 kmh S 9.2 mph14.8 kmh 29.06 in984.1 mb 0.00 in0.0 mm 0.00 in0.0 mm 0.00 in0.0 mm
11:19 AM 82.2°F27.9°C 73.9°F23.3°C 76% 2.5 mph SSE4.0 kmh SSE 3.4 mph5.5 kmh 29.08 in984.8 mb 0.00 in0.0 mm 0.00 in0.0 mm 0.00 in0.0 mm
11:24 AM 82.4°F28.0°C 74.5°F23.6°C 77% 4.0 mph SW6.4 kmh SW 5.8 mph9.3 kmh 29.07 in984.4 mb 0.00 in0.0 mm 0.00 in0.0 mm 0.00 in0.0 mm
11:29 AM 83.1°F28.4°C 74.5°F23.6°C 75% 4.0 mph WSW6.4 kmh WSW 5.8 mph9.3 kmh 29.07 in984.4 mb 0.00 in0.0 mm 0.00 in0.0 mm 0.00 in0.0 mm
11:34 AM 82.9°F28.3°C 74.7°F23.7°C 76% 5.4 mph WSW8.7 kmh WSW 6.9 mph11.1 kmh 29.07 in984.4 mb 0.00 in0.0 mm 0.00 in0.0 mm 0.00 in0.0 mm
11:39 AM 83.3°F28.5°C 74.7°F23.7°C 75% 2.7 mph WSW4.3 kmh WSW 4.5 mph7.2 kmh 29.07 in984.4 mb 0.00 in0.0 mm 0.00 in0.0 mm 0.00 in0.0 mm
11:44 AM 83.7°F28.7°C 75.0°F23.9°C 75% 1.1 mph WSW1.8 kmh WSW 1.1 mph1.8 kmh 29.07 in984.4 mb 0.00 in0.0 mm 0.00 in0.0 mm 0.00 in0.0 mm
11:49 AM 83.5°F28.6°C 74.3°F23.5°C 74% 5.8 mph SW9.3 kmh SW 8.1 mph13.0 kmh 29.08 in984.8 mb 0.00 in0.0 mm 0.00 in0.0 mm 0.00 in0.0 mm
11:54 AM 84.2°F29.0°C 74.7°F23.7°C 73% 8.1 mph SSW13.0 kmh SSW 11.4 mph18.3 kmh 29.08 in984.8 mb 0.00 in0.0 mm 0.00 in0.0 mm 0.00 in0.0 mm
11:59 AM 82.8°F28.2°C 74.1°F23.4°C 75% 4.3 mph SW6.9 kmh SW 4.5 mph7.2 kmh 29.08 in984.8 mb 0.00 in0.0 mm 0.00 in0.0 mm 0.00 in0.0 mm
12:04 PM 82.6°F28.1°C 73.9°F23.3°C 75% 7.2 mph WSW11.6 kmh WSW 12.5 mph20.1 kmh 29.08 in984.8 mb 0.00 in0.0 mm 0.00 in0.0 mm 0.00 in0.0 mm
12:09 PM 84.2°F29.0°C 74.3°F23.5°C 72% 4.7 mph S7.6 kmh S 6.9 mph11.1 kmh 29.08 in984.8 mb 0.00 in0.0 mm 0.00 in0.0 mm 0.00 in0.0 mm
12:14 PM 85.3°F29.6°C 73.9°F23.3°C 69% 2.5 mph WSW4.0 kmh WSW 3.4 mph5.5 kmh 29.07 in984.4 mb 0.00 in0.0 mm 0.00 in0.0 mm 0.00 in0.0 mm
12:19 PM 85.1°F29.5°C 73.8°F23.2°C 69% 2.7 mph SW4.3 kmh SW 3.4 mph5.5 kmh 29.06 in984.1 mb 0.00 in0.0 mm 0.00 in0.0 mm 0.00 in0.0 mm
12:24 PM 85.8°F29.9°C 74.5°F23.6°C 69% 6.0 mph WSW9.7 kmh WSW 9.2 mph14.8 kmh 29.07 in984.4 mb 0.00 in0.0 mm 0.00 in0.0 mm 0.00 in0.0 mm
12:29 PM 86.4°F30.2°C 74.7°F23.7°C 68% 2.9 mph SW4.7 kmh SW 4.5 mph7.2 kmh 29.08 in984.8 mb 0.00 in0.0 mm 0.00 in0.0 mm 0.00 in0.0 mm
12:34 PM 85.8°F29.9°C 73.2°F22.9°C 66% 6.0 mph SW9.7 kmh SW 11.4 mph18.3 kmh 29.08 in984.8 mb 0.00 in0.0 mm 0.00 in0.0 mm 0.00 in0.0 mm
12:39 PM 86.4°F30.2°C 73.8°F23.2°C 66% 6.7 mph WSW10.8 kmh WSW 8.1 mph13.0 kmh 29.07 in984.4 mb 0.00 in0.0 mm 0.00 in0.0 mm 0.00 in0.0 mm
12:44 PM 85.8°F29.9°C 73.6°F23.1°C 67% 8.3 mph SW13.4 kmh SW 11.4 mph18.3 kmh 29.08 in984.8 mb 0.00 in0.0 mm 0.00 in0.0 mm 0.00 in0.0 mm
12:49 PM 86.5°F30.3°C 74.3°F23.5°C 67% 4.0 mph SW6.4 kmh SW 5.8 mph9.3 kmh 29.07 in984.4 mb 0.00 in0.0 mm 0.00 in0.0 mm 0.00 in0.0 mm
12:54 PM 85.8°F29.9°C 73.2°F22.9°C 66% 6.0 mph S9.7 kmh S 8.1 mph13.0 kmh 29.07 in984.4 mb 0.00 in0.0 mm 0.00 in0.0 mm 0.00 in0.0 mm
12:59 PM 86.5°F30.3°C 74.3°F23.5°C 67% 4.9 mph SW7.9 kmh SW 6.9 mph11.1 kmh 29.07 in984.4 mb 0.00 in0.0 mm 0.00 in0.0 mm 0.00 in0.0 mm
01:04 PM 86.5°F30.3°C 73.4°F23.0°C 65% 3.4 mph SW5.5 kmh SW 6.9 mph11.1 kmh 29.07 in984.4 mb 0.00 in0.0 mm 0.00 in0.0 mm 0.00 in0.0 mm
01:09 PM 86.0°F30.0°C 73.4°F23.0°C 66% 3.6 mph SW5.8 kmh SW 4.5 mph7.2 kmh 29.07 in984.4 mb 0.00 in0.0 mm 0.00 in0.0 mm 0.00 in0.0 mm
01:14 PM 86.9°F30.5°C 73.8°F23.2°C 65% 3.8 mph SW6.1 kmh SW 4.5 mph7.2 kmh 29.07 in984.4 mb 0.00 in0.0 mm 0.00 in0.0 mm 0.00 in0.0 mm
01:19 PM 87.1°F30.6°C 72.5°F22.5°C 62% 1.8 mph SW2.9 kmh SW 4.5 mph7.2 kmh 29.07 in984.4 mb 0.00 in0.0 mm 0.00 in0.0 mm 0.00 in0.0 mm
01:24 PM 87.1°F30.6°C 73.0°F22.8°C 63% 5.8 mph SW9.3 kmh SW 6.9 mph11.1 kmh 29.06 in984.1 mb 0.00 in0.0 mm 0.00 in0.0 mm 0.00 in0.0 mm
01:29 PM 86.9°F30.5°C 72.0°F22.2°C 61% 4.0 mph W6.4 kmh W 6.9 mph11.1 kmh 29.07 in984.4 mb 0.00 in0.0 mm 0.00 in0.0 mm 0.00 in0.0 mm
01:34 PM 87.4°F30.8°C 72.3°F22.4°C 61% 2.9 mph WNW4.7 kmh WNW 4.5 mph7.2 kmh 29.06 in984.1 mb 0.00 in0.0 mm 0.00 in0.0 mm 0.00 in0.0 mm
01:39 PM 87.1°F30.6°C 73.0°F22.8°C 63% 4.3 mph SW6.9 kmh SW 6.9 mph11.1 kmh 29.07 in984.4 mb 0.00 in0.0 mm 0.00 in0.0 mm 0.00 in0.0 mm
01:44 PM 87.3°F30.7°C 72.3°F22.4°C 61% 7.4 mph SW11.9 kmh SW 8.1 mph13.0 kmh 29.06 in984.1 mb 0.00 in0.0 mm 0.00 in0.0 mm 0.00 in0.0 mm
01:49 PM 86.9°F30.5°C 72.0°F22.2°C 61% 7.4 mph SW11.9 kmh SW 11.4 mph18.3 kmh 29.06 in984.1 mb 0.00 in0.0 mm 0.00 in0.0 mm 0.00 in0.0 mm
01:54 PM 87.4°F30.8°C 72.3°F22.4°C 61% 6.3 mph SSW10.1 kmh SSW 9.2 mph14.8 kmh 29.07 in984.4 mb 0.00 in0.0 mm 0.00 in0.0 mm 0.00 in0.0 mm
01:59 PM 87.4°F30.8°C 71.4°F21.9°C 59% 3.4 mph SSW5.5 kmh SSW 3.4 mph5.5 kmh 29.07 in984.4 mb 0.00 in0.0 mm 0.00 in0.0 mm 0.00 in0.0 mm
02:04 PM 87.8°F31.0°C 72.3°F22.4°C 60% 4.3 mph SW6.9 kmh SW 6.9 mph11.1 kmh 29.06 in984.1 mb 0.00 in0.0 mm 0.00 in0.0 mm 0.00 in0.0 mm
02:09 PM 87.4°F30.8°C 72.3°F22.4°C 61% 4.7 mph SW7.6 kmh SW 6.9 mph11.1 kmh 29.07 in984.4 mb 0.00 in0.0 mm 0.00 in0.0 mm 0.00 in0.0 mm
02:14 PM 87.6°F30.9°C 73.0°F22.8°C 62% 2.7 mph SW4.3 kmh SW 3.4 mph5.5 kmh 29.07 in984.4 mb 0.00 in0.0 mm 0.00 in0.0 mm 0.00 in0.0 mm
02:19 PM 87.6°F30.9°C 72.5°F22.5°C 61% 3.4 mph WSW5.5 kmh WSW 4.5 mph7.2 kmh 29.07 in984.4 mb 0.00 in0.0 mm 0.00 in0.0 mm 0.00 in0.0 mm
02:24 PM 88.3°F31.3°C 73.2°F22.9°C 61% 2.0 mph SW3.2 kmh SW 2.2 mph3.5 kmh 29.06 in984.1 mb 0.00 in0.0 mm 0.00 in0.0 mm 0.00 in0.0 mm
02:29 PM 88.5°F31.4°C 72.5°F22.5°C 59% 3.8 mph SW6.1 kmh SW 5.8 mph9.3 kmh 29.06 in984.1 mb 0.00 in0.0 mm 0.00 in0.0 mm 0.00 in0.0 mm
02:34 PM 88.5°F31.4°C 72.9°F22.7°C 60% 3.4 mph W5.5 kmh W 3.4 mph5.5 kmh 29.06 in984.1 mb 0.00 in0.0 mm 0.00 in0.0 mm 0.00 in0.0 mm
02:39 PM 88.2°F31.2°C 72.1°F22.3°C 59% 4.0 mph SSW6.4 kmh SSW 6.9 mph11.1 kmh 29.06 in984.1 mb 0.00 in0.0 mm 0.00 in0.0 mm 0.00 in0.0 mm
02:44 PM 88.5°F31.4°C 73.4°F23.0°C 61% 2.9 mph WSW4.7 kmh WSW 3.4 mph5.5 kmh 29.06 in984.1 mb 0.00 in0.0 mm 0.00 in0.0 mm 0.00 in0.0 mm
02:49 PM 88.5°F31.4°C 73.4°F23.0°C 61% 2.5 mph S4.0 kmh S 3.4 mph5.5 kmh 29.06 in984.1 mb 0.00 in0.0 mm 0.00 in0.0 mm 0.00 in0.0 mm
02:54 PM 88.5°F31.4°C 73.4°F23.0°C 61% 2.2 mph WSW3.5 kmh WSW 3.4 mph5.5 kmh 29.06 in984.1 mb 0.00 in0.0 mm 0.00 in0.0 mm 0.00 in0.0 mm
02:59 PM 89.1°F31.7°C 73.4°F23.0°C 60% 3.6 mph WSW5.8 kmh WSW 4.5 mph7.2 kmh 29.06 in984.1 mb 0.00 in0.0 mm 0.00 in0.0 mm 0.00 in0.0 mm
03:04 PM 88.3°F31.3°C 73.2°F22.9°C 61% 1.3 mph SSW2.1 kmh SSW 2.2 mph3.5 kmh 29.06 in984.1 mb 0.00 in0.0 mm 0.00 in0.0 mm 0.00 in0.0 mm
03:09 PM 88.2°F31.2°C 73.0°F22.8°C 61% 3.1 mph SW5.0 kmh SW 4.5 mph7.2 kmh 29.06 in984.1 mb 0.00 in0.0 mm 0.00 in0.0 mm 0.00 in0.0 mm
03:14 PM 88.2°F31.2°C 72.1°F22.3°C 59% 3.4 mph NNW5.5 kmh NNW 4.5 mph7.2 kmh 29.06 in984.1 mb 0.00 in0.0 mm 0.00 in0.0 mm 0.00 in0.0 mm
03:19 PM 88.9°F31.6°C 73.2°F22.9°C 60% 2.9 mph SSW4.7 kmh SSW 6.9 mph11.1 kmh 29.07 in984.4 mb 0.00 in0.0 mm 0.00 in0.0 mm 0.00 in0.0 mm
03:24 PM 88.9°F31.6°C 73.2°F22.9°C 60% 9.2 mph SW14.8 kmh SW 14.8 mph23.8 kmh 29.06 in984.1 mb 0.00 in0.0 mm 0.00 in0.0 mm 0.00 in0.0 mm
03:29 PM 88.3°F31.3°C 72.7°F22.6°C 60% 2.9 mph SSE4.7 kmh SSE 4.5 mph7.2 kmh 29.06 in984.1 mb 0.00 in0.0 mm 0.00 in0.0 mm 0.00 in0.0 mm
03:34 PM 88.2°F31.2°C 71.6°F22.0°C 58% 3.4 mph WNW5.5 kmh WNW 5.8 mph9.3 kmh 29.06 in984.1 mb 0.00 in0.0 mm 0.00 in0.0 mm 0.00 in0.0 mm
03:39 PM 88.2°F31.2°C 71.6°F22.0°C 58% 3.8 mph SW6.1 kmh SW 5.8 mph9.3 kmh 29.06 in984.1 mb 0.00 in0.0 mm 0.00 in0.0 mm 0.00 in0.0 mm
03:44 PM 87.8°F31.0°C 72.3°F22.4°C 60% 1.3 mph W2.1 kmh W 2.2 mph3.5 kmh 29.07 in984.4 mb 0.00 in0.0 mm 0.00 in0.0 mm 0.00 in0.0 mm
03:49 PM 88.3°F31.3°C 72.3°F22.4°C 59% 1.8 mph SW2.9 kmh SW 4.5 mph7.2 kmh 29.07 in984.4 mb 0.00 in0.0 mm 0.00 in0.0 mm 0.00 in0.0 mm
03:54 PM 88.7°F31.5°C 72.1°F22.3°C 58% 2.9 mph SW4.7 kmh SW 3.4 mph5.5 kmh 29.06 in984.1 mb 0.00 in0.0 mm 0.00 in0.0 mm 0.00 in0.0 mm
03:59 PM 89.1°F31.7°C 72.5°F22.5°C 58% 4.5 mph SSW7.2 kmh SSW 6.9 mph11.1 kmh 29.06 in984.1 mb 0.00 in0.0 mm 0.00 in0.0 mm 0.00 in0.0 mm
04:04 PM 88.3°F31.3°C 71.8°F22.1°C 58% 4.3 mph SSW6.9 kmh SSW 5.8 mph9.3 kmh 29.06 in984.1 mb 0.00 in0.0 mm 0.00 in0.0 mm 0.00 in0.0 mm
04:09 PM 87.8°F31.0°C 71.8°F22.1°C 59% 1.3 mph SW2.1 kmh SW 2.2 mph3.5 kmh 29.06 in984.1 mb 0.00 in0.0 mm 0.00 in0.0 mm 0.00 in0.0 mm
04:14 PM 88.5°F31.4°C 72.0°F22.2°C 58% 7.6 mph SW12.2 kmh SW 13.6 mph21.9 kmh 29.06 in984.1 mb 0.00 in0.0 mm 0.00 in0.0 mm 0.00 in0.0 mm
04:19 PM 89.1°F31.7°C 71.4°F21.9°C 56% 1.8 mph SW2.9 kmh SW 3.4 mph5.5 kmh 29.07 in984.4 mb 0.00 in0.0 mm 0.00 in0.0 mm 0.00 in0.0 mm
04:24 PM 88.2°F31.2°C 71.1°F21.7°C 57% 3.6 mph WSW5.8 kmh WSW 4.5 mph7.2 kmh 29.06 in984.1 mb 0.00 in0.0 mm 0.00 in0.0 mm 0.00 in0.0 mm
04:29 PM 88.3°F31.3°C 71.8°F22.1°C 58% 1.8 mph SSW2.9 kmh SSW 2.2 mph3.5 kmh 29.07 in984.4 mb 0.00 in0.0 mm 0.00 in0.0 mm 0.00 in0.0 mm
04:34 PM 88.2°F31.2°C 71.6°F22.0°C 58% 7.4 mph WSW11.9 kmh WSW 10.3 mph16.6 kmh 29.07 in984.4 mb 0.00 in0.0 mm 0.00 in0.0 mm 0.00 in0.0 mm
04:39 PM 88.0°F31.1°C 70.9°F21.6°C 57% 4.0 mph SW6.4 kmh SW 5.8 mph9.3 kmh 29.06 in984.1 mb 0.00 in0.0 mm 0.00 in0.0 mm 0.00 in0.0 mm
04:44 PM 87.4°F30.8°C 70.3°F21.3°C 57% 2.5 mph S4.0 kmh S 3.4 mph5.5 kmh 29.07 in984.4 mb 0.00 in0.0 mm 0.00 in0.0 mm 0.00 in0.0 mm
04:49 PM 87.4°F30.8°C 70.9°F21.6°C 58% 2.2 mph SW3.5 kmh SW 3.4 mph5.5 kmh 29.06 in984.1 mb 0.00 in0.0 mm 0.00 in0.0 mm 0.00 in0.0 mm
04:54 PM 87.8°F31.0°C 70.7°F21.5°C 57% 7.2 mph W11.6 kmh W 9.2 mph14.8 kmh 29.06 in984.1 mb 0.00 in0.0 mm 0.00 in0.0 mm 0.00 in0.0 mm
04:59 PM 87.8°F31.0°C 70.7°F21.5°C 57% 2.9 mph SW4.7 kmh SW 3.4 mph5.5 kmh 29.06 in984.1 mb 0.00 in0.0 mm 0.00 in0.0 mm 0.00 in0.0 mm
05:04 PM 88.0°F31.1°C 70.3°F21.3°C 56% 7.4 mph SW11.9 kmh SW 9.2 mph14.8 kmh 29.07 in984.4 mb 0.00 in0.0 mm 0.00 in0.0 mm 0.00 in0.0 mm
05:09 PM 88.9°F31.6°C 71.2°F21.8°C 56% 3.8 mph SSW6.1 kmh SSW 4.5 mph7.2 kmh 29.07 in984.4 mb 0.00 in0.0 mm 0.00 in0.0 mm 0.00 in0.0 mm
05:14 PM 88.7°F31.5°C 70.5°F21.4°C 55% 6.5 mph SSW10.5 kmh SSW 9.2 mph14.8 kmh 29.07 in984.4 mb 0.00 in0.0 mm 0.00 in0.0 mm 0.00 in0.0 mm
05:19 PM 88.2°F31.2°C 71.1°F21.7°C 57% 2.5 mph SW4.0 kmh SW 3.4 mph5.5 kmh 29.06 in984.1 mb 0.00 in0.0 mm 0.00 in0.0 mm 0.00 in0.0 mm
05:24 PM 88.5°F31.4°C 71.4°F21.9°C 57% 1.6 mph SW2.6 kmh SW 2.2 mph3.5 kmh 29.06 in984.1 mb 0.00 in0.0 mm 0.00 in0.0 mm 0.00 in0.0 mm
05:29 PM 88.3°F31.3°C 72.7°F22.6°C 60% 4.7 mph SSW7.6 kmh SSW 5.8 mph9.3 kmh 29.08 in984.8 mb 0.00 in0.0 mm 0.00 in0.0 mm 0.00 in0.0 mm
05:34 PM 88.7°F31.5°C 71.6°F22.0°C 57% 3.4 mph SW5.5 kmh SW 4.5 mph7.2 kmh 29.07 in984.4 mb 0.00 in0.0 mm 0.00 in0.0 mm 0.00 in0.0 mm
05:39 PM 88.5°F31.4°C 70.9°F21.6°C 56% 6.5 mph SW10.5 kmh SW 9.2 mph14.8 kmh 29.07 in984.4 mb 0.00 in0.0 mm 0.00 in0.0 mm 0.00 in0.0 mm
05:44 PM 88.5°F31.4°C 70.9°F21.6°C 56% 3.6 mph WSW5.8 kmh WSW 6.9 mph11.1 kmh 29.07 in984.4 mb 0.00 in0.0 mm 0.00 in0.0 mm 0.00 in0.0 mm
05:49 PM 87.8°F31.0°C 69.6°F20.9°C 55% 4.0 mph WSW6.4 kmh WSW 6.9 mph11.1 kmh 29.07 in984.4 mb 0.00 in0.0 mm 0.00 in0.0 mm 0.00 in0.0 mm
05:54 PM 87.6°F30.9°C 70.0°F21.1°C 56% 1.6 mph SW2.6 kmh SW 2.2 mph3.5 kmh 29.07 in984.4 mb 0.00 in0.0 mm 0.00 in0.0 mm 0.00 in0.0 mm
05:59 PM 88.0°F31.1°C 70.3°F21.3°C 56% 1.3 mph WNW2.1 kmh WNW 2.2 mph3.5 kmh 29.07 in984.4 mb 0.00 in0.0 mm 0.00 in0.0 mm 0.00 in0.0 mm
06:04 PM 88.0°F31.1°C 70.9°F21.6°C 57% 6.9 mph WSW11.1 kmh WSW 8.1 mph13.0 kmh 29.06 in984.1 mb 0.00 in0.0 mm 0.00 in0.0 mm 0.00 in0.0 mm
06:09 PM 87.8°F31.0°C 70.2°F21.2°C 56% 1.6 mph NNW2.6 kmh NNW 2.2 mph3.5 kmh 29.07 in984.4 mb 0.00 in0.0 mm 0.00 in0.0 mm 0.00 in0.0 mm
06:14 PM 87.4°F30.8°C 69.8°F21.0°C 56% 6.0 mph W9.7 kmh W 11.4 mph18.3 kmh 29.07 in984.4 mb 0.00 in0.0 mm 0.00 in0.0 mm 0.00 in0.0 mm
06:19 PM 87.6°F30.9°C 70.0°F21.1°C 56% 2.9 mph SW4.7 kmh SW 4.5 mph7.2 kmh 29.06 in984.1 mb 0.00 in0.0 mm 0.00 in0.0 mm 0.00 in0.0 mm
06:24 PM 87.3°F30.7°C 70.7°F21.5°C 58% 2.2 mph WSW3.5 kmh WSW 2.2 mph3.5 kmh 29.06 in984.1 mb 0.00 in0.0 mm 0.00 in0.0 mm 0.00 in0.0 mm
06:29 PM 87.3°F30.7°C 69.6°F20.9°C 56% 4.0 mph SSW6.4 kmh SSW 5.8 mph9.3 kmh 29.06 in984.1 mb 0.00 in0.0 mm 0.00 in0.0 mm 0.00 in0.0 mm
06:34 PM 87.6°F30.9°C 70.5°F21.4°C 57% 3.4 mph SW5.5 kmh SW 4.5 mph7.2 kmh 29.06 in984.1 mb 0.00 in0.0 mm 0.00 in0.0 mm 0.00 in0.0 mm
06:39 PM 87.3°F30.7°C 69.6°F20.9°C 56% 2.2 mph SW3.5 kmh SW 6.9 mph11.1 kmh 29.06 in984.1 mb 0.00 in0.0 mm 0.00 in0.0 mm 0.00 in0.0 mm
06:44 PM 87.3°F30.7°C 70.2°F21.2°C 57% 1.1 mph SW1.8 kmh SW 2.2 mph3.5 kmh 29.06 in984.1 mb 0.00 in0.0 mm 0.00 in0.0 mm 0.00 in0.0 mm
06:49 PM 87.3°F30.7°C 69.6°F20.9°C 56% 1.1 mph SSW1.8 kmh SSW 1.1 mph1.8 kmh 29.06 in984.1 mb 0.00 in0.0 mm 0.00 in0.0 mm 0.00 in0.0 mm
06:54 PM 86.7°F30.4°C 69.8°F21.0°C 57% 5.4 mph WSW8.7 kmh WSW 10.3 mph16.6 kmh 29.06 in984.1 mb 0.00 in0.0 mm 0.00 in0.0 mm 0.00 in0.0 mm
06:59 PM 86.5°F30.3°C 69.6°F20.9°C 57% 4.0 mph SW6.4 kmh SW 5.8 mph9.3 kmh 29.06 in984.1 mb 0.00 in0.0 mm 0.00 in0.0 mm 0.00 in0.0 mm
07:04 PM 86.4°F30.2°C 70.0°F21.1°C 58% 2.5 mph SW4.0 kmh SW 4.5 mph7.2 kmh 29.06 in984.1 mb 0.00 in0.0 mm 0.00 in0.0 mm 0.00 in0.0 mm
07:09 PM 86.4°F30.2°C 69.4°F20.8°C 57% 0.9 mph WSW1.4 kmh WSW 1.1 mph1.8 kmh 29.06 in984.1 mb 0.00 in0.0 mm 0.00 in0.0 mm 0.00 in0.0 mm
07:14 PM 86.4°F30.2°C 70.3°F21.3°C 59% 2.2 mph SW3.5 kmh SW 2.2 mph3.5 kmh 29.06 in984.1 mb 0.00 in0.0 mm 0.00 in0.0 mm 0.00 in0.0 mm
07:19 PM 86.5°F30.3°C 70.0°F21.1°C 58% 2.2 mph WSW3.5 kmh WSW 3.4 mph5.5 kmh 29.06 in984.1 mb 0.00 in0.0 mm 0.00 in0.0 mm 0.00 in0.0 mm
07:24 PM 86.5°F30.3°C 70.0°F21.1°C 58% 1.3 mph SSW2.1 kmh SSW 2.2 mph3.5 kmh 29.06 in984.1 mb 0.00 in0.0 mm 0.00 in0.0 mm 0.00 in0.0 mm
07:29 PM 86.2°F30.1°C 70.2°F21.2°C 59% 0.7 mph SW1.1 kmh SW 1.1 mph1.8 kmh 29.07 in984.4 mb 0.00 in0.0 mm 0.00 in0.0 mm 0.00 in0.0 mm
07:34 PM 86.0°F30.0°C 70.0°F21.1°C 59% 2.0 mph SW3.2 kmh SW 2.2 mph3.5 kmh 29.06 in984.1 mb 0.00 in0.0 mm 0.00 in0.0 mm 0.00 in0.0 mm
07:39 PM 85.8°F29.9°C 69.8°F21.0°C 59% 0.9 mph W1.4 kmh W 1.1 mph1.8 kmh 29.06 in984.1 mb 0.00 in0.0 mm 0.00 in0.0 mm 0.00 in0.0 mm
07:44 PM 85.8°F29.9°C 69.8°F21.0°C 59% 1.6 mph SW2.6 kmh SW 2.2 mph3.5 kmh 29.06 in984.1 mb 0.00 in0.0 mm 0.00 in0.0 mm 0.00 in0.0 mm
07:49 PM 85.6°F29.8°C 70.2°F21.2°C 60% 3.4 mph S5.5 kmh S 4.5 mph7.2 kmh 29.06 in984.1 mb 0.00 in0.0 mm 0.00 in0.0 mm 0.00 in0.0 mm
07:54 PM 85.5°F29.7°C 70.5°F21.4°C 61% 1.3 mph SW2.1 kmh SW 2.2 mph3.5 kmh 29.06 in984.1 mb 0.00 in0.0 mm 0.00 in0.0 mm 0.00 in0.0 mm
07:59 PM 85.1°F29.5°C 70.7°F21.5°C 62% 1.8 mph SSW2.9 kmh SSW 2.2 mph3.5 kmh 29.06 in984.1 mb 0.00 in0.0 mm 0.00 in0.0 mm 0.00 in0.0 mm
08:04 PM 85.1°F29.5°C 70.7°F21.5°C 62% 1.1 mph S1.8 kmh S 2.2 mph3.5 kmh 29.06 in984.1 mb 0.00 in0.0 mm 0.00 in0.0 mm 0.00 in0.0 mm
08:09 PM 85.1°F29.5°C 70.7°F21.5°C 62% 0.2 mph SE0.3 kmh SE 1.1 mph1.8 kmh 29.07 in984.4 mb 0.00 in0.0 mm 0.00 in0.0 mm 0.00 in0.0 mm
08:14 PM 84.9°F29.4°C 70.5°F21.4°C 62% 0.9 mph SE1.4 kmh SE 1.1 mph1.8 kmh 29.07 in984.4 mb 0.00 in0.0 mm 0.00 in0.0 mm 0.00 in0.0 mm
08:19 PM 85.1°F29.5°C 70.7°F21.5°C 62% 2.2 mph WSW3.5 kmh WSW 2.2 mph3.5 kmh 29.07 in984.4 mb 0.00 in0.0 mm 0.00 in0.0 mm 0.00 in0.0 mm
08:24 PM 85.1°F29.5°C 71.1°F21.7°C 63% 1.6 mph SW2.6 kmh SW 2.2 mph3.5 kmh 29.07 in984.4 mb 0.00 in0.0 mm 0.00 in0.0 mm 0.00 in0.0 mm
08:29 PM 84.7°F29.3°C 71.2°F21.8°C 64% 1.8 mph SW2.9 kmh SW 3.4 mph5.5 kmh 29.07 in984.4 mb 0.00 in0.0 mm 0.00 in0.0 mm 0.00 in0.0 mm
08:34 PM 84.7°F29.3°C 71.2°F21.8°C 64% 1.1 mph SSW1.8 kmh SSW 1.1 mph1.8 kmh 29.07 in984.4 mb 0.00 in0.0 mm 0.00 in0.0 mm 0.00 in0.0 mm
08:39 PM 84.6°F29.2°C 71.1°F21.7°C 64% 0.7 mph SW1.1 kmh SW 1.1 mph1.8 kmh 29.08 in984.8 mb 0.00 in0.0 mm 0.00 in0.0 mm 0.00 in0.0 mm
08:44 PM 84.4°F29.1°C 70.9°F21.6°C 64% 0.7 mph SE1.1 kmh SE 2.2 mph3.5 kmh 29.08 in984.8 mb 0.00 in0.0 mm 0.00 in0.0 mm 0.00 in0.0 mm
08:49 PM 84.2°F29.0°C 71.2°F21.8°C 65% Calm Calm -- 29.08 in984.8 mb 0.00 in0.0 mm 0.00 in0.0 mm 0.00 in0.0 mm
08:54 PM 84.2°F29.0°C 71.2°F21.8°C 65% 1.3 mph SW2.1 kmh SW 2.2 mph3.5 kmh 29.08 in984.8 mb 0.00 in0.0 mm 0.00 in0.0 mm 0.00 in0.0 mm
08:59 PM 84.0°F28.9°C 71.4°F21.9°C 66% Calm Calm -- 29.09 in985.1 mb 0.00 in0.0 mm 0.00 in0.0 mm 0.00 in0.0 mm
09:04 PM 83.7°F28.7°C 71.6°F22.0°C 67% Calm Calm -- 29.09 in985.1 mb 0.00 in0.0 mm 0.00 in0.0 mm 0.00 in0.0 mm
09:09 PM 83.5°F28.6°C 71.8°F22.1°C 68% 1.6 mph SW2.6 kmh SW 2.2 mph3.5 kmh 29.09 in985.1 mb 0.00 in0.0 mm 0.00 in0.0 mm 0.00 in0.0 mm
09:14 PM 83.1°F28.4°C 72.0°F22.2°C 69% 0.2 mph SE0.3 kmh SE 1.1 mph1.8 kmh 29.10 in985.4 mb 0.00 in0.0 mm 0.00 in0.0 mm 0.00 in0.0 mm
09:19 PM 83.1°F28.4°C 72.0°F22.2°C 69% 0.2 mph S0.3 kmh S 1.1 mph1.8 kmh 29.09 in985.1 mb 0.00 in0.0 mm 0.00 in0.0 mm 0.00 in0.0 mm
09:24 PM 82.9°F28.3°C 72.1°F22.3°C 70% 1.1 mph WSW1.8 kmh WSW 1.1 mph1.8 kmh 29.10 in985.4 mb 0.00 in0.0 mm 0.00 in0.0 mm 0.00 in0.0 mm
09:29 PM 82.8°F28.2°C 72.0°F22.2°C 70% Calm Calm -- 29.11 in985.8 mb 0.00 in0.0 mm 0.00 in0.0 mm 0.00 in0.0 mm
09:34 PM 82.9°F28.3°C 72.1°F22.3°C 70% 0.9 mph SE1.4 kmh SE 2.2 mph3.5 kmh 29.11 in985.8 mb 0.00 in0.0 mm 0.00 in0.0 mm 0.00 in0.0 mm
09:39 PM 82.8°F28.2°C 72.0°F22.2°C 70% 2.0 mph WSW3.2 kmh WSW 3.4 mph5.5 kmh 29.11 in985.8 mb 0.00 in0.0 mm 0.00 in0.0 mm 0.00 in0.0 mm
09:44 PM 82.4°F28.0°C 72.1°F22.3°C 71% Calm Calm -- 29.11 in985.8 mb 0.00 in0.0 mm 0.00 in0.0 mm 0.00 in0.0 mm
09:49 PM 82.2°F27.9°C 72.0°F22.2°C 71% 0.4 mph W0.6 kmh W 1.1 mph1.8 kmh 29.11 in985.8 mb 0.00 in0.0 mm 0.00 in0.0 mm 0.00 in0.0 mm
09:54 PM 82.0°F27.8°C 72.1°F22.3°C 72% 1.8 mph SSW2.9 kmh SSW 2.2 mph3.5 kmh 29.11 in985.8 mb 0.00 in0.0 mm 0.00 in0.0 mm 0.00 in0.0 mm
09:59 PM 82.2°F27.9°C 72.3°F22.4°C 72% 0.7 mph SW1.1 kmh SW 1.1 mph1.8 kmh 29.12 in986.1 mb 0.00 in0.0 mm 0.00 in0.0 mm 0.00 in0.0 mm
10:04 PM 82.0°F27.8°C 72.1°F22.3°C 72% Calm Calm -- 29.12 in986.1 mb 0.00 in0.0 mm 0.00 in0.0 mm 0.00 in0.0 mm
10:09 PM 82.0°F27.8°C 72.1°F22.3°C 72% 2.2 mph SW3.5 kmh SW 3.4 mph5.5 kmh 29.13 in986.5 mb 0.00 in0.0 mm 0.00 in0.0 mm 0.00 in0.0 mm
10:14 PM 82.0°F27.8°C 72.1°F22.3°C 72% 0.2 mph SSE0.3 kmh SSE 1.1 mph1.8 kmh 29.13 in986.5 mb 0.00 in0.0 mm 0.00 in0.0 mm 0.00 in0.0 mm
10:19 PM 82.0°F27.8°C 72.1°F22.3°C 72% Calm Calm -- 29.12 in986.1 mb 0.00 in0.0 mm 0.00 in0.0 mm 0.00 in0.0 mm
10:24 PM 82.0°F27.8°C 72.5°F22.5°C 73% 0.4 mph SW0.6 kmh SW 1.1 mph1.8 kmh 29.13 in986.5 mb 0.00 in0.0 mm 0.00 in0.0 mm 0.00 in0.0 mm
10:29 PM 82.0°F27.8°C 72.5°F22.5°C 73% 1.6 mph SW2.6 kmh SW 2.2 mph3.5 kmh 29.13 in986.5 mb 0.00 in0.0 mm 0.00 in0.0 mm 0.00 in0.0 mm
10:34 PM 81.9°F27.7°C 72.3°F22.4°C 73% 1.1 mph SW1.8 kmh SW 1.1 mph1.8 kmh 29.14 in986.8 mb 0.00 in0.0 mm 0.00 in0.0 mm 0.00 in0.0 mm
10:39 PM 82.0°F27.8°C 72.5°F22.5°C 73% 1.3 mph SW2.1 kmh SW 2.2 mph3.5 kmh 29.14 in986.8 mb 0.00 in0.0 mm 0.00 in0.0 mm 0.00 in0.0 mm
10:44 PM 81.7°F27.6°C 72.1°F22.3°C 73% 1.8 mph WSW2.9 kmh WSW 2.2 mph3.5 kmh 29.14 in986.8 mb 0.00 in0.0 mm 0.00 in0.0 mm 0.00 in0.0 mm
10:49 PM 81.5°F27.5°C 72.5°F22.5°C 74% 0.2 mph SSW0.3 kmh SSW 1.1 mph1.8 kmh 29.14 in986.8 mb 0.00 in0.0 mm 0.00 in0.0 mm 0.00 in0.0 mm
10:54 PM 81.5°F27.5°C 72.5°F22.5°C 74% 0.2 mph S0.3 kmh S 1.1 mph1.8 kmh 29.14 in986.8 mb 0.00 in0.0 mm 0.00 in0.0 mm 0.00 in0.0 mm
10:59 PM 81.5°F27.5°C 72.9°F22.7°C 75% 0.4 mph S0.6 kmh S 1.1 mph1.8 kmh 29.15 in987.1 mb 0.00 in0.0 mm 0.00 in0.0 mm 0.00 in0.0 mm
11:04 PM 81.3°F27.4°C 72.7°F22.6°C 75% 0.9 mph SW1.4 kmh SW 1.1 mph1.8 kmh 29.15 in987.1 mb 0.00 in0.0 mm 0.00 in0.0 mm 0.00 in0.0 mm
11:09 PM 81.3°F27.4°C 72.7°F22.6°C 75% 2.0 mph SW3.2 kmh SW 3.4 mph5.5 kmh 29.16 in987.5 mb 0.00 in0.0 mm 0.00 in0.0 mm 0.00 in0.0 mm
11:14 PM 81.1°F27.3°C 72.9°F22.7°C 76% 1.8 mph SSW2.9 kmh SSW 2.2 mph3.5 kmh 29.16 in987.5 mb 0.00 in0.0 mm 0.00 in0.0 mm 0.00 in0.0 mm
11:19 PM 81.1°F27.3°C 72.9°F22.7°C 76% 2.9 mph SSW4.7 kmh SSW 4.5 mph7.2 kmh 29.16 in987.5 mb 0.00 in0.0 mm 0.00 in0.0 mm 0.00 in0.0 mm
11:24 PM 81.0°F27.2°C 73.0°F22.8°C 77% 1.6 mph SW2.6 kmh SW 2.2 mph3.5 kmh 29.16 in987.5 mb 0.00 in0.0 mm 0.00 in0.0 mm 0.00 in0.0 mm
11:29 PM 81.0°F27.2°C 73.0°F22.8°C 77% 0.2 mph S0.3 kmh S 1.1 mph1.8 kmh 29.16 in987.5 mb 0.00 in0.0 mm 0.00 in0.0 mm 0.00 in0.0 mm
11:34 PM 80.8°F27.1°C 73.2°F22.9°C 78% 3.4 mph SW5.5 kmh SW 4.5 mph7.2 kmh 29.16 in987.5 mb 0.00 in0.0 mm 0.00 in0.0 mm 0.00 in0.0 mm
11:39 PM 80.6°F27.0°C 73.2°F22.9°C 78% 0.2 mph WSW0.3 kmh WSW 1.1 mph1.8 kmh 29.16 in987.5 mb 0.00 in0.0 mm 0.00 in0.0 mm 0.00 in0.0 mm
11:44 PM 80.8°F27.1°C 73.2°F22.9°C 78% 0.9 mph SW1.4 kmh SW 1.1 mph1.8 kmh 29.17 in987.8 mb 0.00 in0.0 mm 0.00 in0.0 mm 0.00 in0.0 mm
11:49 PM 80.6°F27.0°C 73.2°F22.9°C 78% 2.2 mph SW3.5 kmh SW 2.2 mph3.5 kmh 29.16 in987.5 mb 0.00 in0.0 mm 0.00 in0.0 mm 0.00 in0.0 mm
11:54 PM 80.6°F27.0°C 73.6°F23.1°C 79% 2.9 mph SW4.7 kmh SW 4.5 mph7.2 kmh 29.16 in987.5 mb 0.00 in0.0 mm 0.00 in0.0 mm 0.00 in0.0 mm